Time;durP1;ratioP1;P1;durP2;ratioP2;P2;SDS_P1;SDS_P2;PMS_P1;PMS_P2;Temp;Humidity;BMP_temperature;BMP_pressure;BME280_temperature;BME280_humidity;BME280_pressure;Samples;Min_cycle;Max_cycle;Signal;HPM_P1;HPM_P2
2021/05/24 00:00:14;;;;;;;1.85;1.75;;;;;;;16.58;40.42;100245.18;1670019;82;21088;-85
2021/05/24 00:02:41;;;;;;;3.35;2.15;;;;;;;16.57;40.47;100260.20;1668060;85;21072;-86
2021/05/24 00:05:14;;;;;;;3.35;2.75;;;;;;;16.56;40.64;100263.42;1681082;83;21683;-86
2021/05/24 00:07:40;;;;;;;3.50;2.67;;;;;;;16.52;40.80;100269.78;1683277;83;21108;-86
2021/05/24 00:10:14;;;;;;;2.22;2.02;;;;;;;16.50;41.16;100273.23;1692062;83;21586;-85
2021/05/24 00:12:47;;;;;;;2.05;1.87;;;;;;;16.47;40.70;100274.22;1668405;83;21617;-84
2021/05/24 00:15:25;;;;;;;3.25;1.85;;;;;;;16.45;40.47;100285.20;1662456;84;21141;-86
2021/05/24 00:17:54;;;;;;;4.75;2.58;;;;;;;16.43;40.87;100285.95;1662382;84;21189;-87
2021/05/24 00:20:27;;;;;;;3.67;2.45;;;;;;;16.40;41.39;100289.09;1667517;84;21082;-84
2021/05/24 00:22:55;;;;;;;2.92;1.57;;;;;;;16.33;41.89;100299.95;1671138;84;21124;-87
2021/05/24 00:25:24;;;;;;;2.25;2.05;;;;;;;16.21;41.99;100300.41;1662520;84;21153;-88
2021/05/24 00:27:52;;;;;;;3.42;1.80;;;;;;;16.15;42.42;100313.42;1643081;84;21161;-86
2021/05/24 00:30:22;;;;;;;3.22;2.08;;;;;;;16.05;42.62;100319.33;1667162;84;21260;-87
2021/05/24 00:32:49;;;;;;;3.58;2.83;;;;;;;16.00;42.78;100327.77;1665296;84;21169;-87
2021/05/24 00:35:15;;;;;;;4.70;3.27;;;;;;;15.99;43.21;100324.24;1663149;84;21227;-87
2021/05/24 00:37:42;;;;;;;6.25;3.17;;;;;;;15.95;43.65;100332.46;1663419;84;21098;-86
2021/05/24 00:40:10;;;;;;;3.92;3.08;;;;;;;15.94;42.40;100321.42;1666673;84;21684;-89
2021/05/24 00:42:36;;;;;;;5.08;3.55;;;;;;;15.99;42.39;100333.65;1663109;84;21182;-89
2021/05/24 00:45:06;;;;;;;4.83;3.95;;;;;;;16.05;42.79;100331.44;1686643;83;21070;-88
2021/05/24 00:47:33;;;;;;;6.83;2.98;;;;;;;16.08;42.64;100330.16;1688856;83;21591;-86
2021/05/24 00:49:59;;;;;;;2.65;2.45;;;;;;;16.08;42.52;100343.06;1670065;83;21082;-86
2021/05/24 00:52:25;;;;;;;5.87;2.75;;;;;;;16.11;42.31;100348.00;1647642;85;21099;-87
2021/05/24 00:54:52;;;;;;;3.27;2.05;;;;;;;16.15;42.32;100353.22;1648913;84;21226;-86
2021/05/24 00:57:18;;;;;;;2.52;1.57;;;;;;;16.19;42.60;100356.29;1625995;84;21132;-87
2021/05/24 00:59:45;;;;;;;3.30;2.05;;;;;;;16.22;42.84;100359.88;1622703;86;21065;-87
2021/05/24 01:02:11;;;;;;;;;;;;;;;16.25;42.79;100360.76;1638019;84;21057;-88
2021/05/24 01:04:37;;;;;;;1.40;1.02;;;;;;;16.27;43.57;100366.73;1631849;86;20171;-86
2021/05/24 01:07:05;;;;;;;2.37;1.55;;;;;;;16.22;43.80;100378.70;1639849;86;21183;-87
2021/05/24 01:09:34;;;;;;;1.10;1.10;;;;;;;16.20;45.41;100389.37;1638334;86;21084;-86
2021/05/24 01:12:01;;;;;;;2.85;0.82;;;;;;;16.09;46.38;100382.36;1639267;85;21578;-86
2021/05/24 01:14:27;;;;;;;2.22;1.02;;;;;;;16.01;46.75;100381.83;1638522;86;21584;-85
2021/05/24 01:16:55;;;;;;;3.02;1.37;;;;;;;15.98;46.96;100384.98;1640488;86;21118;-85
2021/05/24 01:19:24;;;;;;;3.40;1.32;;;;;;;15.93;47.75;100390.47;1657782;85;21124;-84
2021/05/24 01:21:51;;;;;;;1.80;1.22;;;;;;;15.88;49.06;100389.00;1631542;87;21084;-86
2021/05/24 01:24:19;;;;;;;4.00;1.62;;;;;;;15.82;49.83;100393.89;1631180;87;21074;-85
2021/05/24 01:26:47;;;;;;;2.60;1.65;;;;;;;15.75;52.78;100395.31;1630055;86;21259;-84
2021/05/24 01:29:19;;;;;;;2.65;1.65;;;;;;;15.63;53.12;100401.06;1628497;86;21193;-85
2021/05/24 01:31:48;;;;;;;2.17;1.45;;;;;;;15.50;55.81;100400.68;1681870;83;21110;-83
2021/05/24 01:34:16;;;;;;;4.25;1.20;;;;;;;15.45;57.90;100399.69;1629743;86;21019;-84
2021/05/24 01:36:43;;;;;;;3.55;1.87;;;;;;;15.40;58.29;100398.98;1635097;86;21252;-86
2021/05/24 01:39:09;;;;;;;3.10;2.10;;;;;;;15.34;59.84;100404.71;1636051;86;21201;-83
2021/05/24 01:41:36;;;;;;;2.33;2.12;;;;;;;15.23;61.06;100407.28;1658650;84;21057;-84
2021/05/24 01:44:02;;;;;;;;;;;;;;;15.08;61.97;100408.40;1670576;84;21084;-85
2021/05/24 01:46:29;;;;;;;7.05;2.83;;;;;;;14.96;63.08;100405.59;1676599;84;20222;-85
2021/05/24 01:48:57;;;;;;;3.60;2.12;;;;;;;14.79;63.83;100404.45;1635585;85;21689;-84
2021/05/24 01:51:23;;;;;;;5.28;2.83;;;;;;;14.75;64.87;100409.42;1606207;85;22251;-85
2021/05/24 01:53:51;;;;;;;4.08;2.50;;;;;;;14.77;65.62;100410.55;1612095;87;21400;-85
2021/05/24 01:56:17;;;;;;;3.98;2.40;;;;;;;14.72;66.06;100411.17;1640437;85;21057;-83
2021/05/24 01:58:43;;;;;;;4.92;2.77;;;;;;;14.67;66.80;100416.87;1646098;86;21054;-85
2021/05/24 02:01:10;;;;;;;4.67;2.52;;;;;;;14.58;67.74;100417.13;1656256;85;21336;-85
2021/05/24 02:03:39;;;;;;;3.15;2.85;;;;;;;14.50;68.38;100419.19;1642226;85;22312;-85
2021/05/24 02:06:06;;;;;;;2.72;2.52;;;;;;;14.44;68.89;100423.54;1653813;85;21778;-84
2021/05/24 02:08:34;;;;;;;2.87;2.60;;;;;;;14.44;69.87;100428.91;1648363;85;21165;-87
2021/05/24 02:11:02;;;;;;;5.80;2.65;;;;;;;14.42;70.26;100428.30;1649477;85;21642;-83
2021/05/24 02:13:30;;;;;;;2.80;2.50;;;;;;;14.38;70.73;100428.41;1646642;86;21678;-84
2021/05/24 02:15:58;;;;;;;3.40;2.95;;;;;;;14.39;71.31;100430.89;1652182;85;21098;-85
2021/05/24 02:18:24;;;;;;;4.92;3.05;;;;;;;14.39;71.54;100431.39;1650073;85;21078;-83
2021/05/24 02:20:51;;;;;;;3.98;3.15;;;;;;;14.39;71.50;100439.43;1639046;86;21154;-84
2021/05/24 02:23:19;;;;;;;5.67;3.42;;;;;;;14.37;71.27;100438.82;1651986;84;21143;-84
2021/05/24 02:25:45;;;;;;;3.75;2.95;;;;;;;14.32;71.62;100444.83;1650426;86;21165;-84
2021/05/24 02:28:11;;;;;;;;;;;;;;;14.32;72.05;100447.51;1653585;85;21069;-84
2021/05/24 02:30:38;;;;;;;3.90;3.25;;;;;;;14.30;72.49;100448.77;1648282;85;20216;-84
2021/05/24 02:33:05;;;;;;;3.55;3.02;;;;;;;14.19;73.10;100453.72;1649501;86;21278;-84
2021/05/24 02:35:31;;;;;;;4.05;3.40;;;;;;;14.12;73.37;100458.27;1658803;85;21765;-83
2021/05/24 02:37:58;;;;;;;3.77;3.20;;;;;;;14.05;73.99;100460.13;1655130;85;21245;-84
2021/05/24 02:40:25;;;;;;;9.58;3.87;;;;;;;14.00;74.57;100458.08;1657874;85;21042;-85
2021/05/24 02:42:51;;;;;;;3.40;3.20;;;;;;;14.00;74.67;100468.80;1653043;85;21085;-86
2021/05/24 02:45:21;;;;;;;6.30;3.62;;;;;;;14.05;74.63;100464.14;1653106;85;20980;-88
2021/05/24 02:47:49;;;;;;;5.33;3.40;;;;;;;14.09;74.71;100466.73;1654478;85;21138;-86
2021/05/24 02:50:23;;;;;;;7.22;3.83;;;;;;;14.14;74.68;100473.62;1649158;85;21138;-85
2021/05/24 02:52:49;;;;;;;3.80;3.58;;;;;;;14.17;74.57;100475.89;1640489;85;21036;-85
2021/05/24 02:55:16;;;;;;;5.67;4.58;;;;;;;14.13;74.77;100474.66;1658580;85;21045;-84
2021/05/24 02:57:44;;;;;;;;;;;;;;;14.14;74.95;100478.16;1633652;85;21698;-85
2021/05/24 03:00:13;;;;;;;3.70;3.20;;;;;;;14.22;74.67;100473.91;1639701;86;20795;-85
2021/05/24 03:02:47;;;;;;;4.97;4.47;;;;;;;14.21;74.34;100481.14;1617483;87;21092;-86
2021/05/24 03:05:19;;;;;;;7.05;4.00;;;;;;;14.23;73.33;100481.46;1638685;86;21236;-85
2021/05/24 03:07:48;;;;;;;4.70;3.92;;;;;;;14.21;73.04;100490.52;1660649;85;21764;-84
2021/05/24 03:10:18;;;;;;;7.05;3.87;;;;;;;14.19;72.66;100492.59;1649980;85;21107;-86
2021/05/24 03:12:45;;;;;;;1.50;0.85;;;;;;;14.21;72.69;100493.20;1664477;84;21020;-87
2021/05/24 03:15:14;;;;;;;2.45;1.00;;;;;;;14.26;71.22;100489.06;1666492;84;21048;-88
2021/05/24 03:17:42;;;;;;;5.05;3.33;;;;;;;14.23;70.21;100491.66;1665796;85;21047;-83
2021/05/24 03:20:11;;;;;;;4.78;3.25;;;;;;;14.13;70.79;100488.59;1658331;85;21633;-85
2021/05/24 03:22:39;;;;;;;6.97;4.42;;;;;;;14.02;71.05;100491.37;1658346;85;21003;-84
2021/05/24 03:25:07;;;;;;;5.60;4.33;;;;;;;13.97;71.55;100491.17;1641708;86;21048;-84
2021/05/24 03:27:34;;;;;;;2.87;2.65;;;;;;;13.98;71.79;100491.48;1640198;86;21124;-83
2021/05/24 03:30:04;;;;;;;4.28;3.30;;;;;;;13.92;71.63;100490.46;1651015;85;21588;-84
2021/05/24 03:32:34;;;;;;;3.45;3.15;;;;;;;13.78;71.65;100490.95;1654369;85;21231;-84
2021/05/24 03:35:00;;;;;;;;;;;;;;;13.57;71.98;100495.99;1659086;86;21057;-84
2021/05/24 03:37:26;;;;;;;5.67;3.67;;;;;;;13.36;73.25;100494.31;1651796;86;20535;-83
2021/05/24 03:39:52;;;;;;;;;;;;;;;13.17;74.45;100491.05;1654482;86;21842;-84
2021/05/24 03:42:18;;;;;;;4.17;2.90;;;;;;;13.11;75.42;100493.17;1679838;83;20179;-84
2021/05/24 03:44:46;;;;;;;6.78;4.28;;;;;;;12.98;76.43;100498.80;1625649;87;21568;-84
2021/05/24 03:47:14;;;;;;;3.55;3.17;;;;;;;12.90;76.80;100500.30;1676006;83;21643;-84
2021/05/24 03:49:49;;;;;;;5.22;4.03;;;;;;;12.82;77.85;100498.63;1709991;83;21016;-85
2021/05/24 03:52:09;;;;;;;7.12;4.17;;;;;;;12.77;77.97;100498.41;1686034;83;21716;-83
2021/05/24 03:54:36;;;;;;;4.62;4.33;;;;;;;12.74;78.17;100498.80;1681346;83;21589;-84
2021/05/24 03:57:02;;;;;;;5.22;4.00;;;;;;;12.69;78.29;100501.23;1646815;85;21000;-84
2021/05/24 03:59:28;;;;;;;4.60;3.75;;;;;;;12.60;78.89;100504.61;1689583;83;20981;-84
2021/05/24 04:01:56;;;;;;;6.67;3.67;;;;;;;12.56;78.58;100502.51;1689709;83;20986;-85
2021/05/24 04:04:22;;;;;;;3.52;3.00;;;;;;;12.57;78.91;100512.20;1692429;83;21072;-84
2021/05/24 04:06:55;;;;;;;5.03;4.55;;;;;;;12.56;79.44;100512.69;1689253;83;21096;-86
2021/05/24 04:09:16;;;;;;;4.17;3.72;;;;;;;12.52;79.19;100512.77;1693224;83;21868;-85
2021/05/24 04:11:42;;;;;;;4.97;4.15;;;;;;;12.50;79.40;100508.65;1638188;86;20958;-84
2021/05/24 04:14:10;;;;;;;7.22;3.98;;;;;;;12.51;79.59;100509.80;1625849;86;21096;-83
2021/05/24 04:16:37;;;;;;;4.33;3.37;;;;;;;12.31;79.64;100474.91;1658828;85;21021;-82
2021/05/24 04:19:11;;;;;;;3.45;2.90;;;;;;;12.55;79.51;100513.72;1647236;85;21100;-80
2021/05/24 04:21:37;;;;;;;5.22;3.10;;;;;;;12.55;79.42;100517.73;1645054;85;21156;-82
2021/05/24 04:24:05;;;;;;;3.72;3.45;;;;;;;12.53;79.67;100517.11;1657838;85;21876;-83
2021/05/24 04:26:31;;;;;;;5.83;3.22;;;;;;;12.54;79.59;100528.09;1640851;85;21176;-83
2021/05/24 04:29:00;;;;;;;3.02;2.77;;;;;;;12.54;79.33;100528.63;1642206;85;21673;-85
2021/05/24 04:31:26;;;;;;;3.35;1.87;;;;;;;12.54;78.99;100534.78;1640147;85;21672;-83
2021/05/24 04:33:52;;;;;;;2.95;2.37;;;;;;;12.50;78.79;100534.05;1648612;84;22221;-83
2021/05/24 04:36:19;;;;;;;2.50;2.40;;;;;;;12.40;78.89;100533.06;1616572;86;21123;-82
2021/05/24 04:38:46;;;;;;;3.08;1.80;;;;;;;12.37;78.98;100534.27;1663976;85;21471;-82
2021/05/24 04:41:12;;;;;;;2.70;2.30;;;;;;;12.39;78.61;100537.56;1647010;85;21064;-82
2021/05/24 04:43:40;;;;;;;2.05;1.87;;;;;;;12.40;78.83;100541.91;1656572;85;21080;-82
2021/05/24 04:46:08;;;;;;;4.17;2.43;;;;;;;12.39;78.71;100539.42;1670563;84;21075;-84
2021/05/24 04:48:35;;;;;;;3.47;3.05;;;;;;;12.34;78.96;100541.36;1628131;86;21064;-82
2021/05/24 04:51:04;;;;;;;4.13;2.23;;;;;;;12.25;79.25;100543.86;1654334;84;21044;-84
2021/05/24 04:53:33;;;;;;;3.00;2.70;;;;;;;12.21;79.51;100546.09;1631707;85;21554;-84
2021/05/24 04:56:00;;;;;;;3.87;2.42;;;;;;;12.21;79.24;100554.10;1654117;84;21835;-90
2021/05/24 04:58:26;;;;;;;3.20;2.85;;;;;;;12.20;79.31;100563.64;1653543;84;21104;-83
2021/05/24 05:00:52;;;;;;;2.80;2.17;;;;;;;12.19;79.56;100564.68;1629855;85;21599;-83
2021/05/24 05:03:20;;;;;;;3.72;2.47;;;;;;;12.17;79.70;100558.19;1662013;84;21044;-84
2021/05/24 05:05:46;;;;;;;6.63;2.63;;;;;;;12.17;79.96;100557.37;1668684;84;21048;-84
2021/05/24 05:08:15;;;;;;;3.43;2.33;;;;;;;12.13;79.83;100564.95;1672347;84;21129;-83
2021/05/24 05:10:41;;;;;;;2.30;2.20;;;;;;;12.04;80.29;100558.89;1668577;84;21060;-83
2021/05/24 05:13:09;;;;;;;2.43;2.23;;;;;;;12.06;80.40;100560.86;1663921;84;21007;-84
2021/05/24 05:15:36;;;;;;;2.80;2.20;;;;;;;12.10;80.50;100564.50;1657149;84;21067;-84
2021/05/24 05:18:02;;;;;;;2.55;2.35;;;;;;;12.13;80.65;100564.09;1658060;84;21116;-84
2021/05/24 05:20:29;;;;;;;3.10;2.50;;;;;;;12.15;80.70;100570.92;1666165;84;21222;-85
2021/05/24 05:22:55;;;;;;;3.15;2.85;;;;;;;12.21;81.16;100570.14;1661597;84;20980;-85
2021/05/24 05:25:21;;;;;;;3.10;2.70;;;;;;;12.24;81.04;100573.77;1688798;83;21163;-87
2021/05/24 05:27:48;;;;;;;4.92;2.83;;;;;;;12.27;81.08;100580.05;1615397;86;21621;-85
2021/05/24 05:30:15;;;;;;;4.08;3.58;;;;;;;12.31;81.14;100584.50;1656839;84;21081;-86
2021/05/24 05:32:41;;;;;;;3.12;2.92;;;;;;;12.31;81.25;100588.51;1667781;84;21000;-86
2021/05/24 05:35:08;;;;;;;5.95;2.22;;;;;;;12.28;81.51;100592.89;1659040;85;21040;-88
2021/05/24 05:37:34;;;;;;;4.28;2.10;;;;;;;12.28;81.24;100594.23;1655594;86;21657;-88
2021/05/24 05:40:00;;;;;;;4.30;2.25;;;;;;;12.33;81.24;100593.66;1700579;83;21152;-85
2021/05/24 05:42:26;;;;;;;4.75;2.00;;;;;;;12.36;80.95;100603.98;1645143;86;21951;-87
2021/05/24 05:44:52;;;;;;;1.17;1.17;;;;;;;12.37;80.60;100607.77;1665683;85;21477;-87
2021/05/24 05:47:20;;;;;;;2.12;1.40;;;;;;;12.37;80.06;100612.30;1661657;81;21129;-87
2021/05/24 05:49:48;;;;;;;2.23;2.13;;;;;;;12.34;79.98;100619.36;1636563;86;21147;-87
2021/05/24 05:52:18;;;;;;;3.00;1.37;;;;;;;12.26;80.34;100615.83;1638336;85;21051;-86
2021/05/24 05:54:49;;;;;;;2.27;1.75;;;;;;;12.26;80.68;100618.50;1621938;86;21083;-84
2021/05/24 05:57:16;;;;;;;2.60;1.83;;;;;;;12.33;80.71;100615.05;1637601;86;20992;-89
2021/05/24 05:59:45;;;;;;;0.90;0.90;;;;;;;12.38;80.63;100632.68;1660213;84;21451;-87
2021/05/24 06:02:12;;;;;;;1.10;1.00;;;;;;;12.36;79.70;100633.39;1644638;86;21107;-87
2021/05/24 06:04:37;;;;;;;2.27;0.88;;;;;;;12.29;79.60;100631.16;1649331;86;21127;-85
2021/05/24 06:07:04;;;;;;;2.15;1.27;;;;;;;12.15;79.79;100645.73;1651214;85;21692;-88
2021/05/24 06:09:30;;;;;;;0.62;0.55;;;;;;;12.12;79.34;100635.94;1662815;86;21079;-89
2021/05/24 06:11:58;;;;;;;0.90;0.43;;;;;;;12.10;79.21;100642.80;1662473;84;21178;-86
2021/05/24 06:14:27;;;;;;;0.75;0.72;;;;;;;12.09;78.96;100639.80;1664813;84;21086;-89
2021/05/24 06:16:53;;;;;;;1.53;0.47;;;;;;;12.07;79.09;100642.69;1663883;84;21415;-89
2021/05/24 06:19:21;;;;;;;0.72;0.30;;;;;;;12.07;79.28;100656.53;1655367;84;21447;-90
2021/05/24 06:21:48;;;;;;;2.03;0.20;;;;;;;12.04;78.82;100648.40;1668784;84;21160;-86
2021/05/24 06:24:14;;;;;;;;;;;;;;;11.99;78.41;100652.66;1665134;84;21123;-89
2021/05/24 06:26:40;;;;;;;2.40;0.30;;;;;;;11.98;78.41;100650.50;1658405;85;20228;-88
2021/05/24 06:29:08;;;;;;;0.60;0.30;;;;;;;12.00;77.95;100657.00;1651628;86;21688;-86
2021/05/24 06:31:34;;;;;;;0.57;0.55;;;;;;;12.01;77.63;100662.12;1651832;86;21127;-89
2021/05/24 06:34:00;;;;;;;0.70;0.20;;;;;;;11.98;77.26;100669.20;1635103;86;22408;-86
2021/05/24 06:36:27;;;;;;;1.10;0.20;;;;;;;11.90;77.71;100663.96;1653030;85;21203;-86
2021/05/24 06:38:53;;;;;;;0.20;0.20;;;;;;;11.85;77.41;100661.84;1654431;86;21109;-88
2021/05/24 06:41:19;;;;;;;1.35;0.20;;;;;;;11.87;77.21;100669.16;1653761;86;21112;-87
2021/05/24 06:43:48;;;;;;;0.80;0.30;;;;;;;11.87;76.59;100685.18;1650507;86;21111;-87
2021/05/24 06:46:15;;;;;;;0.20;0.20;;;;;;;11.81;77.07;100695.28;1661499;84;22560;-88
2021/05/24 06:48:42;;;;;;;2.13;0.90;;;;;;;11.70;76.68;100690.43;1662612;84;22600;-90
2021/05/24 06:51:09;;;;;;;5.07;3.07;;;;;;;11.67;77.39;100694.28;1657917;84;21115;-86
2021/05/24 06:53:35;;;;;;;1.20;0.50;;;;;;;11.72;77.66;100693.73;1654880;84;21657;-86
2021/05/24 06:56:05;;;;;;;0.50;0.27;;;;;;;11.77;79.17;100703.84;1660365;85;21147;-85
2021/05/24 06:58:33;;;;;;;0.80;0.40;;;;;;;11.80;79.06;100711.49;1665109;84;21226;-86
2021/05/24 07:00:59;;;;;;;0.93;0.30;;;;;;;11.81;79.52;100706.45;1656821;85;21162;-87
2021/05/24 07:03:25;;;;;;;1.35;0.30;;;;;;;11.83;79.61;100711.95;1666300;84;21178;-85
2021/05/24 07:05:51;;;;;;;2.25;0.33;;;;;;;11.87;79.76;100713.73;1675341;84;21115;-89
2021/05/24 07:08:17;;;;;;;0.98;0.20;;;;;;;11.97;79.64;100721.48;1648126;86;21580;-88
2021/05/24 07:10:47;;;;;;;1.65;0.20;;;;;;;12.01;79.76;100711.55;1674593;85;21044;-84
2021/05/24 07:13:14;;;;;;;0.90;0.30;;;;;;;12.02;79.53;100727.09;1682248;83;21041;-87
2021/05/24 07:15:40;;;;;;;1.33;0.30;;;;;;;12.01;79.70;100730.77;1705636;82;21090;-88
2021/05/24 07:18:07;;;;;;;1.65;0.28;;;;;;;12.09;79.77;100726.64;1714433;82;21129;-93
2021/05/24 07:20:33;;;;;;;3.10;0.30;;;;;;;12.13;79.87;100722.59;1700426;82;21133;-87
2021/05/24 07:22:59;;;;;;;0.35;0.30;;;;;;;12.10;80.13;100722.97;1706586;82;21303;-88
2021/05/24 07:25:25;;;;;;;0.28;0.20;;;;;;;12.14;79.78;100719.41;1710565;82;21825;-89
2021/05/24 07:27:51;;;;;;;0.88;0.30;;;;;;;12.08;79.59;100720.48;1711761;82;21167;-87
2021/05/24 07:30:18;;;;;;;0.75;0.30;;;;;;;12.14;79.76;100729.58;1714475;82;21200;-88
2021/05/24 07:32:46;;;;;;;1.80;0.20;;;;;;;12.17;80.06;100727.88;1673071;84;21713;-89
2021/05/24 07:35:13;;;;;;;0.40;0.40;;;;;;;12.20;79.26;100727.48;1636678;86;21065;-88
2021/05/24 07:37:40;;;;;;;1.63;0.30;;;;;;;12.24;79.79;100732.80;1695099;82;21143;-91
2021/05/24 07:40:09;;;;;;;1.62;0.40;;;;;;;12.29;79.43;100735.40;1695914;82;21046;-87
2021/05/24 07:42:38;;;;;;;1.70;0.50;;;;;;;12.32;79.34;100736.34;1688670;83;21139;-87
2021/05/24 07:45:06;;;;;;;1.07;0.37;;;;;;;12.33;79.31;100739.34;1691712;83;21099;-86
2021/05/24 07:47:33;;;;;;;1.03;0.50;;;;;;;12.33;79.68;100738.00;1692851;83;21059;-88
2021/05/24 07:50:03;;;;;;;1.43;0.40;;;;;;;12.37;80.06;100733.41;1697167;83;21022;-87
2021/05/24 07:52:35;;;;;;;0.97;0.40;;;;;;;12.40;79.80;100738.39;1699044;83;21056;-90
2021/05/24 07:55:03;;;;;;;0.40;0.40;;;;;;;12.43;80.53;100739.84;1692903;83;21028;-86
2021/05/24 07:57:29;;;;;;;0.73;0.40;;;;;;;12.47;80.65;100739.80;1701330;83;21421;-87
2021/05/24 07:59:55;;;;;;;0.80;0.65;;;;;;;12.56;80.51;100743.98;1699934;83;21158;-88
2021/05/24 08:02:22;;;;;;;0.60;0.40;;;;;;;12.62;80.31;100742.38;1699084;83;21231;-85
2021/05/24 08:04:51;;;;;;;0.80;0.80;;;;;;;12.68;80.04;100744.80;1687057;83;21170;-90
2021/05/24 08:07:18;;;;;;;1.43;0.70;;;;;;;12.75;79.75;100743.02;1693553;83;21086;-87
2021/05/24 08:09:46;;;;;;;0.47;0.23;;;;;;;12.78;79.42;100746.66;1697826;83;21047;-88
2021/05/24 08:12:13;;;;;;;1.42;0.30;;;;;;;12.77;79.00;100744.98;1693539;83;21086;-90
2021/05/24 08:14:39;;;;;;;0.62;0.20;;;;;;;12.81;78.47;100750.30;1660991;84;21169;-89
2021/05/24 08:17:07;;;;;;;0.80;0.57;;;;;;;12.85;77.64;100752.89;1706218;83;21126;-88
2021/05/24 08:19:41;;;;;;;4.70;0.53;;;;;;;12.87;77.86;100752.19;1694745;83;21246;-89
2021/05/24 08:24:27;;;;;;;0.45;0.40;;;;;;;13.01;77.84;100759.28;1751543;79;22936;-88
2021/05/24 08:26:56;;;;;;;0.50;0.40;;;;;;;12.91;78.45;100765.49;1713834;81;21207;-90
2021/05/24 08:29:22;;;;;;;0.20;0.15;;;;;;;12.93;78.73;100760.77;1726344;81;21142;-88
2021/05/24 08:31:50;;;;;;;0.85;0.50;;;;;;;13.03;78.12;100769.31;1711417;82;21205;-86
2021/05/24 08:34:18;;;;;;;1.55;0.20;;;;;;;13.16;77.66;100770.41;1704399;82;20974;-88
2021/05/24 08:36:46;;;;;;;0.45;0.23;;;;;;;13.24;77.23;100777.80;1727791;82;21171;-90
2021/05/24 08:39:12;;;;;;;0.65;0.13;;;;;;;13.25;77.00;100778.62;1715459;81;21045;-89
2021/05/24 08:41:39;;;;;;;0.40;0.20;;;;;;;13.33;76.05;100769.13;1705211;81;21703;-90
2021/05/24 08:44:08;;;;;;;0.47;0.20;;;;;;;13.40;76.67;100790.08;1708253;82;21169;-90
2021/05/24 08:46:40;;;;;;;1.15;0.40;;;;;;;13.50;76.62;100782.20;1687422;83;21167;-91
2021/05/24 08:49:06;;;;;;;0.53;0.20;;;;;;;13.62;76.21;100791.36;1666185;85;21115;-91
2021/05/24 08:51:33;;;;;;;2.17;0.10;;;;;;;13.73;75.66;100789.47;1659541;83;21178;-93
2021/05/24 08:54:03;;;;;;;0.70;0.17;;;;;;;13.74;74.22;100790.28;1685314;83;21078;-90
2021/05/24 08:56:31;;;;;;;0.20;0.10;;;;;;;13.69;73.80;100794.06;1703654;83;21034;-91
2021/05/24 08:59:00;;;;;;;0.40;0.10;;;;;;;13.74;73.77;100807.18;1712984;83;21112;-89
2021/05/24 09:01:27;;;;;;;0.20;0.10;;;;;;;13.77;73.37;100809.47;1695506;83;21005;-92
2021/05/24 09:04:05;;;;;;;1.00;0.10;;;;;;;13.77;74.09;100807.31;1674865;83;21146;-93
2021/05/24 09:06:41;;;;;;;0.95;0.20;;;;;;;13.74;74.78;100805.02;1684571;82;21034;-91
2021/05/24 09:09:20;;;;;;;0.30;0.20;;;;;;;13.82;75.44;100803.50;1661861;82;21051;-92
2021/05/24 09:11:49;;;;;;;;;;;;;;;13.98;74.59;100808.55;1682063;83;21049;-93
2021/05/24 09:14:24;;;;;;;1.50;0.20;;;;;;;14.11;75.41;100809.13;1692144;83;20220;-92
2021/05/24 09:17:01;;;;;;;0.98;0.68;;;;;;;14.16;73.63;100803.14;1688070;83;21216;-93
2021/05/24 09:19:34;;;;;;;1.27;0.30;;;;;;;14.16;73.72;100810.66;1687091;83;21152;-91
2021/05/24 09:22:11;;;;;;;0.20;0.10;;;;;;;14.19;73.76;100804.91;1685571;83;21114;-91
2021/05/24 09:24:42;;;;;;;2.05;0.40;;;;;;;14.29;73.92;100804.53;1694679;83;22051;-90
2021/05/24 09:27:35;;;;;;;4.58;0.30;;;;;;;14.43;74.06;100814.80;1677572;84;21138;-92
2021/05/24 09:29:59;;;;;;;0.40;0.10;;;;;;;14.57;72.95;100819.70;1666949;84;22403;-88
2021/05/24 09:32:29;;;;;;;0.68;0.10;;;;;;;14.57;71.01;100819.19;1634978;85;21229;-94
2021/05/24 09:35:03;;;;;;;0.60;0.40;;;;;;;14.55;72.17;100829.78;1666924;81;21184;-92
2021/05/24 09:37:37;;;;;;;2.17;0.17;;;;;;;14.65;72.74;100817.34;1673246;84;21030;-93
2021/05/24 09:40:19;;;;;;;3.17;0.10;;;;;;;14.78;70.92;100826.23;1651821;85;21199;-88
2021/05/24 09:42:46;;;;;;;2.67;0.42;;;;;;;14.79;68.78;100835.14;1659005;84;21144;-93
2021/05/24 09:45:21;;;;;;;2.60;0.50;;;;;;;14.72;69.23;100828.92;1659520;84;21893;-90
2021/05/24 09:47:49;;;;;;;0.90;0.20;;;;;;;14.69;68.64;100830.66;1673004;84;21282;-92
2021/05/24 09:50:21;;;;;;;;;;;;;;;14.78;68.75;100830.78;1676365;84;21030;-90
2021/05/24 09:52:49;;;;;;;1.02;0.35;;;;;;;14.93;67.60;100818.52;1665674;84;20261;-91
2021/05/24 09:55:31;;;;;;;0.33;0.23;;;;;;;14.93;67.61;100836.78;1668327;82;21140;-94
2021/05/24 09:58:06;;;;;;;0.40;0.13;;;;;;;14.99;67.03;100821.23;1715631;82;21325;-92
2021/05/24 10:00:45;;;;;;;0.70;0.10;;;;;;;15.06;66.46;100821.21;1717485;83;21530;-92
2021/05/24 10:03:13;;;;;;;0.88;0.20;;;;;;;15.18;65.98;100822.75;1672805;82;21139;-94
2021/05/24 10:05:46;;;;;;;1.20;0.10;;;;;;;15.32;66.70;100811.51;1724653;82;21128;-93
2021/05/24 10:08:14;;;;;;;3.05;0.10;;;;;;;15.40;65.01;100821.21;1710775;82;21059;-90
2021/05/24 10:10:49;;;;;;;2.35;0.40;;;;;;;15.43;64.78;100816.78;1732313;81;21134;-91
2021/05/24 10:13:23;;;;;;;0.88;0.10;;;;;;;15.48;65.07;100812.42;1705284;83;21190;-91
2021/05/24 10:15:59;;;;;;;1.87;0.13;;;;;;;15.56;63.97;100811.38;1706076;82;21171;-89
2021/05/24 10:18:20;;;;;;;0.70;0.23;;;;;;;15.62;63.72;100823.97;1680075;84;21098;-90
2021/05/24 10:20:46;;;;;;;0.42;0.10;;;;;;;15.65;63.33;100807.44;1706461;82;21087;-91
2021/05/24 10:23:13;;;;;;;0.57;0.10;;;;;;;15.78;62.76;100803.08;1712838;82;21229;-91
2021/05/24 10:25:39;;;;;;;0.80;0.10;;;;;;;15.81;61.21;100819.61;1737525;82;21138;-91
2021/05/24 10:28:06;;;;;;;2.33;0.10;;;;;;;15.60;61.57;100780.89;1732355;81;21342;-83
2021/05/24 10:30:36;;;;;;;0.30;0.20;;;;;;;15.77;59.47;100829.14;1731428;81;21187;-89
2021/05/24 10:33:10;;;;;;;0.20;0.10;;;;;;;15.73;60.45;100822.50;1725642;82;21999;-91
2021/05/24 10:35:42;;;;;;;0.10;0.10;;;;;;;15.73;58.81;100820.67;1726461;81;21153;-91
2021/05/24 10:38:36;;;;;;;1.05;0.10;;;;;;;15.72;57.91;100821.66;1723120;81;21126;-87
2021/05/24 10:41:12;;;;;;;0.10;0.10;;;;;;;15.74;57.39;100835.73;1732332;81;21154;-91
2021/05/24 10:43:46;;;;;;;0.75;0.10;;;;;;;15.77;58.38;100813.02;1715015;82;21027;-91
2021/05/24 10:46:32;;;;;;;0.20;0.10;;;;;;;15.82;57.91;100817.74;1696713;83;21486;-93
2021/05/24 10:49:19;;;;;;;1.90;0.30;;;;;;;15.88;56.68;100820.42;1705372;83;21058;-91
2021/05/24 10:51:51;;;;;;;0.10;0.10;;;;;;;15.85;56.93;100826.73;1706745;83;21186;-92
2021/05/24 10:54:29;;;;;;;0.10;0.10;;;;;;;15.87;58.21;100816.59;1694590;83;21058;-80
2021/05/24 10:57:04;;;;;;;0.10;0.10;;;;;;;15.95;57.89;100817.70;1715660;81;21092;-82
2021/05/24 10:59:47;;;;;;;0.20;0.10;;;;;;;16.03;55.90;100817.48;1703470;82;21087;-83
2021/05/24 11:02:35;;;;;;;0.93;0.08;;;;;;;16.11;55.83;100819.10;1670040;84;21880;-83
2021/05/24 11:05:22;;;;;;;1.47;0.10;;;;;;;16.19;56.85;100825.58;1677947;84;21129;-81
2021/05/24 11:07:51;;;;;;;0.10;0.10;;;;;;;16.29;56.30;100821.08;1667017;85;21250;-82
2021/05/24 11:10:25;;;;;;;0.30;0.20;;;;;;;16.41;56.38;100824.75;1653149;85;21090;-83
2021/05/24 11:13:11;;;;;;;0.40;0.20;;;;;;;16.51;57.09;100825.09;1679231;84;21661;-80
2021/05/24 11:15:39;;;;;;;0.95;0.28;;;;;;;16.59;56.58;100828.58;1671289;84;21083;-79
2021/05/24 11:18:13;;;;;;;2.40;0.23;;;;;;;16.65;56.71;100823.67;1666245;85;21103;-81
2021/05/24 11:20:57;;;;;;;0.70;0.10;;;;;;;16.75;56.41;100817.31;1681751;84;21094;-80
2021/05/24 11:26:14;;;;;;;0.13;0.08;;;;;;;16.89;54.84;100817.53;1662015;85;21190;-82
2021/05/24 11:29:15;;;;;;;1.22;0.10;;;;;;;16.95;54.68;100816.36;1669992;86;21327;-80
2021/05/24 11:31:46;;;;;;;1.22;0.40;;;;;;;16.93;54.84;100821.46;1675647;84;21652;-81
2021/05/24 11:34:28;;;;;;;0.10;0.10;;;;;;;16.93;54.61;100825.50;1694213;83;21464;-82
2021/05/24 11:37:02;;;;;;;2.30;0.10;;;;;;;16.93;54.14;100830.04;1703565;82;21050;-83
2021/05/24 11:39:49;;;;;;;0.70;0.10;;;;;;;16.92;55.10;100824.37;1715884;83;21094;-82